Lynchburg Regional Preston Glenn Field
KLYH : now visible

Airfield :











YOU CAN JOIN US ON...

 
LOGIN :

Register | Disclaimer

   EN    FR    IT 

 









Legend :    VFR   Marginal VFR   IFR   Intensive IFR   Very Intensive IFR
Visi :
Ceiling :
>= 8 km
>= 3000ft
5 to 8 km
1000 to 3000 ft
1500m to 5 km
500 to 1000 ft
800 to 1500m
200 to 500 ft
< 800m
< 200 ft
Symbols :   Thunderstorms  Fog  Heavy snow  Heavy precipitations  Wind > 20 kt






- Airport Elevation : 938 ft
- IATA code : LYH


KLYH - Lynchburg Regional Preston Glenn Field

CURRENT METAR :
  • 201454Z 00000KT 10SM BKN026 24/16 A3007 RMK AO2 SLP174 T02440156 50003

EXPIRED METARs :
  • 201427Z 02003KT 10SM BKN026 24/16 A3008 RMK AO2 T02390161
  • 201354Z 06003KT 10SM CLR 23/17 A3008 RMK AO2 SLP178 T02280167
  • 201254Z 00000KT 10SM CLR 22/16 A3008 RMK AO2 SLP179 T02170161
  • 201154Z 00000KT 10SM CLR 18/16 A3006 RMK AO2 SLP173 T01830161 10183 20133 53014
  • 201054Z 00000KT 10SM R04/2400VP6000FT CLR 14/14 A3004 RMK AO2 SLP165 T01440139

TAF KLYH
Valid from the 20 at 12:00 until the 21 at 12:00 UTC


201120Z 2012/2112 VRB03KT P6SM SKC
FM201300 08005KT P6SM SKC
KZDC FIR / North America



MET'MAP, your aeronautical weather chart ! - Copyright ORBIFLY December 2007 - Disclaimer

ORBIFLY MET'MAP TEAM :

Programming & Development : Alexandra Zaïnal
Original concept : Baudouin d'Aumeries
Technical & hardware support : Manuel Goepfert
Assistance : Marc-Olivier Méhu




SOURCES & CREDITS :

   NOAA       Earth
Advisory